Aledo, IL

5:16 PM CDT on October 23, 2014 (GMT -0500)
KILALEDO2 | Change Station
CLOSE
Current Station
Personal Weather Station
Location: Aledo, IL
Elevation: 735 ft
Nearby Weather Stations
Active Advisory: Dense Fog Advisory

Elev 735 ft 41.20 °N, 90.76 °W | Updated 1 second ago

Overcast
Overcast
59.7 °F
Feels Like 59.7 °F
N
0.0
Wind Variable Wind from SE
Gusts 0.0 mph

Today
High -- | Low -- °F
--% Chance of Precip.
Yesterday
High -- | Low -- °F
Precip. -- in
7:23 AM 6:10 PM
New Moon, 0% visible
Pressure 30.04 in
Visibility 10.0 miles
Clouds Overcast 2600 ft
Dew Point 48 °F
Humidity 65%
Rainfall 0.00 in
Snow Depth Not available.
UV 0 out of 12
Pollen .30 out of 12
Air Quality Not available.
Flu Activity No Activity
METAR KMLI 232152Z 22006KT 10SM OVC026 16/08 A3004 RMK AO2 SLP173 T01560083

More Conditions Fewer Conditions

Pressure 30.04 in
Visibility 10.0 miles
Clouds Overcast 2600 ft
Dew Point 48 °F
Humidity 65%
Rainfall 0.00 in
Snow Depth Not available.
UV 0 out of 12
Pollen .30 out of 12
Air Quality Not available.
Flu Activity No Activity
METAR KMLI 232152Z 22006KT 10SM OVC026 16/08 A3004 RMK AO2 SLP173 T01560083

More Conditions Fewer Conditions

10-Day Weather Forecast

Almanac

Astronomy

Oct. 23, 2014 Rise Set
Actual Time 7:23 AM CDT 6:10 PM CDT
Civil Twilight 6:55 AM CDT 6:38 PM CDT
Nautical Twilight 6:23 AM CDT 7:10 PM CDT
Astronomical Twilight 5:51 AM CDT 7:42 PM CDT
Moon 7:03 AM CDT 6:12 PM CDT
Length of Visible Light 11h 42m
Length of Day
10h 46m
Tomorrow will be 2m 33s shorter.
New Moon, 0% of the Moon is Illuminated
Today
New Moon
Oct 30
First Quarter
Nov 6
Full
Nov 14
Last Quarter
Nov 22
New

Today's Extremes

State Highs State Lows

Community

WunderPhotos

Upload Photos

1,764,383 photos uploaded!

WunderBlogs® & News

Nearby

Snow Depth

Station Depth Elevation
No new snow has been reported.

Earthquake Activity

City Distance Mag. Time & Date
No recent earthquake activity has been reported nearby.
Minimum magnitude displayed is 2.5.

Coastal Water Temperatures

Place Temperature
No Stations Reporting

Nearby Weather Stations